sensor_id;sensor_type;location;lat;lon;timestamp;pressure;altitude;pressure_sealevel;temperature;humidity
14134;BME280;7147;59.364;18.018;2022-11-23T00:02:05;-14565.66;;;-143.32;100.00
14134;BME280;7147;59.364;18.018;2022-11-23T00:04:32;-14565.66;;;-143.32;100.00
14134;BME280;7147;59.364;18.018;2022-11-23T00:06:59;-14565.66;;;-143.32;100.00
14134;BME280;7147;59.364;18.018;2022-11-23T00:09:26;-14565.66;;;-143.32;100.00
14134;BME280;7147;59.364;18.018;2022-11-23T00:11:52;-14565.66;;;-143.32;100.00
14134;BME280;7147;59.364;18.018;2022-11-23T00:14:19;-14565.66;;;-143.32;100.00
14134;BME280;7147;59.364;18.018;2022-11-23T00:16:47;-14565.66;;;-143.32;100.00
14134;BME280;7147;59.364;18.018;2022-11-23T00:19:14;-14565.66;;;-143.32;100.00
14134;BME280;7147;59.364;18.018;2022-11-23T00:21:41;-14565.66;;;-143.32;100.00
14134;BME280;7147;59.364;18.018;2022-11-23T00:24:10;-14565.66;;;-143.32;100.00
14134;BME280;7147;59.364;18.018;2022-11-23T00:26:37;-14565.66;;;-143.32;100.00
14134;BME280;7147;59.364;18.018;2022-11-23T00:29:04;-14565.66;;;-143.32;100.00
14134;BME280;7147;59.364;18.018;2022-11-23T00:31:30;-14565.66;;;-143.32;100.00
14134;BME280;7147;59.364;18.018;2022-11-23T00:33:58;-14565.66;;;-143.32;100.00
14134;BME280;7147;59.364;18.018;2022-11-23T00:36:26;-14565.66;;;-143.32;100.00
14134;BME280;7147;59.364;18.018;2022-11-23T00:38:53;-14565.66;;;-143.32;100.00
14134;BME280;7147;59.364;18.018;2022-11-23T00:41:22;-14565.66;;;-143.32;100.00
14134;BME280;7147;59.364;18.018;2022-11-23T00:43:50;-14565.66;;;-143.32;100.00
14134;BME280;7147;59.364;18.018;2022-11-23T00:46:18;-14565.66;;;-143.32;100.00
14134;BME280;7147;59.364;18.018;2022-11-23T00:48:47;-14565.66;;;-143.32;100.00
14134;BME280;7147;59.364;18.018;2022-11-23T00:51:17;-14565.66;;;-143.32;100.00
14134;BME280;7147;59.364;18.018;2022-11-23T00:53:44;-14565.66;;;-143.32;100.00
14134;BME280;7147;59.364;18.018;2022-11-23T00:56:11;-14565.66;;;-143.32;100.00
14134;BME280;7147;59.364;18.018;2022-11-23T00:58:38;-14565.66;;;-143.32;100.00
14134;BME280;7147;59.364;18.018;2022-11-23T01:01:07;-14565.66;;;-143.32;100.00
14134;BME280;7147;59.364;18.018;2022-11-23T01:03:35;-14565.66;;;-143.32;100.00
14134;BME280;7147;59.364;18.018;2022-11-23T01:06:07;-14565.66;;;-143.32;100.00
14134;BME280;7147;59.364;18.018;2022-11-23T01:08:37;-14565.66;;;-143.32;100.00
14134;BME280;7147;59.364;18.018;2022-11-23T01:11:07;-14565.66;;;-143.32;100.00
14134;BME280;7147;59.364;18.018;2022-11-23T01:13:34;-14565.66;;;-143.32;100.00
14134;BME280;7147;59.364;18.018;2022-11-23T01:16:01;-14565.66;;;-143.32;100.00
14134;BME280;7147;59.364;18.018;2022-11-23T01:18:28;-14565.66;;;-143.32;100.00
14134;BME280;7147;59.364;18.018;2022-11-23T01:20:55;-14565.66;;;-143.32;100.00
14134;BME280;7147;59.364;18.018;2022-11-23T01:23:22;-14565.66;;;-143.32;100.00
14134;BME280;7147;59.364;18.018;2022-11-23T01:25:50;-14565.66;;;-143.32;100.00
14134;BME280;7147;59.364;18.018;2022-11-23T01:28:16;-14565.66;;;-143.32;100.00
14134;BME280;7147;59.364;18.018;2022-11-23T01:30:43;-14565.66;;;-143.32;100.00
14134;BME280;7147;59.364;18.018;2022-11-23T01:33:10;-14565.66;;;-143.32;100.00
14134;BME280;7147;59.364;18.018;2022-11-23T01:35:37;-14565.66;;;-143.32;100.00
14134;BME280;7147;59.364;18.018;2022-11-23T01:38:04;-14565.66;;;-143.32;100.00
14134;BME280;7147;59.364;18.018;2022-11-23T01:40:38;-14565.66;;;-143.32;100.00
14134;BME280;7147;59.364;18.018;2022-11-23T01:43:13;-14565.66;;;-143.32;100.00
14134;BME280;7147;59.364;18.018;2022-11-23T01:45:41;-14565.66;;;-143.32;100.00
14134;BME280;7147;59.364;18.018;2022-11-23T01:48:14;-14565.66;;;-143.32;100.00
14134;BME280;7147;59.364;18.018;2022-11-23T01:50:44;-14565.66;;;-143.32;100.00
14134;BME280;7147;59.364;18.018;2022-11-23T01:53:12;-14565.66;;;-143.32;100.00
14134;BME280;7147;59.364;18.018;2022-11-23T01:55:39;-14565.66;;;-143.32;100.00
14134;BME280;7147;59.364;18.018;2022-11-23T01:58:08;-14565.66;;;-143.32;100.00
14134;BME280;7147;59.364;18.018;2022-11-23T02:00:36;-14565.66;;;-143.32;100.00
14134;BME280;7147;59.364;18.018;2022-11-23T02:03:03;-14565.66;;;-143.32;100.00
14134;BME280;7147;59.364;18.018;2022-11-23T02:05:35;-14565.66;;;-143.32;100.00
14134;BME280;7147;59.364;18.018;2022-11-23T02:08:03;-14565.66;;;-143.32;100.00
14134;BME280;7147;59.364;18.018;2022-11-23T02:10:32;-14565.66;;;-143.32;100.00
14134;BME280;7147;59.364;18.018;2022-11-23T02:13:02;-14565.66;;;-143.32;100.00
14134;BME280;7147;59.364;18.018;2022-11-23T02:15:32;-14565.66;;;-143.32;100.00
14134;BME280;7147;59.364;18.018;2022-11-23T02:18:02;-14565.66;;;-143.32;100.00
14134;BME280;7147;59.364;18.018;2022-11-23T02:20:30;-14565.66;;;-143.32;100.00
14134;BME280;7147;59.364;18.018;2022-11-23T02:23:09;-14565.66;;;-143.32;100.00
14134;BME280;7147;59.364;18.018;2022-11-23T02:25:49;-14565.66;;;-143.32;100.00
14134;BME280;7147;59.364;18.018;2022-11-23T02:28:19;-14565.66;;;-143.32;100.00
14134;BME280;7147;59.364;18.018;2022-11-23T02:30:50;-14565.66;;;-143.32;100.00
14134;BME280;7147;59.364;18.018;2022-11-23T02:33:18;-14565.66;;;-143.32;100.00
14134;BME280;7147;59.364;18.018;2022-11-23T02:35:48;-14565.66;;;-143.32;100.00
14134;BME280;7147;59.364;18.018;2022-11-23T02:38:17;-14565.66;;;-143.32;100.00
14134;BME280;7147;59.364;18.018;2022-11-23T02:40:44;-14565.66;;;-143.32;100.00
14134;BME280;7147;59.364;18.018;2022-11-23T02:43:12;-14565.66;;;-143.32;100.00
14134;BME280;7147;59.364;18.018;2022-11-23T02:45:42;-14565.66;;;-143.32;100.00
14134;BME280;7147;59.364;18.018;2022-11-23T02:48:12;-14565.66;;;-143.32;100.00
14134;BME280;7147;59.364;18.018;2022-11-23T02:50:39;-14565.66;;;-143.32;100.00
14134;BME280;7147;59.364;18.018;2022-11-23T02:53:05;-14565.66;;;-143.32;100.00
14134;BME280;7147;59.364;18.018;2022-11-23T02:55:32;-14565.66;;;-143.32;100.00
14134;BME280;7147;59.364;18.018;2022-11-23T02:57:59;-14565.66;;;-143.32;100.00
14134;BME280;7147;59.364;18.018;2022-11-23T03:00:28;-14565.66;;;-143.32;100.00
14134;BME280;7147;59.364;18.018;2022-11-23T03:02:55;-14565.66;;;-143.32;100.00
14134;BME280;7147;59.364;18.018;2022-11-23T03:05:21;-14565.66;;;-143.32;100.00
14134;BME280;7147;59.364;18.018;2022-11-23T03:07:48;-14565.66;;;-143.32;100.00
14134;BME280;7147;59.364;18.018;2022-11-23T03:10:15;-14565.66;;;-143.32;100.00
14134;BME280;7147;59.364;18.018;2022-11-23T03:12:41;-14565.66;;;-143.32;100.00
14134;BME280;7147;59.364;18.018;2022-11-23T03:15:09;-14565.66;;;-143.32;100.00
14134;BME280;7147;59.364;18.018;2022-11-23T03:17:37;-14565.66;;;-143.32;100.00
14134;BME280;7147;59.364;18.018;2022-11-23T03:20:05;-14565.66;;;-143.32;100.00
14134;BME280;7147;59.364;18.018;2022-11-23T03:22:32;-14565.66;;;-143.32;100.00
14134;BME280;7147;59.364;18.018;2022-11-23T03:24:59;-14565.66;;;-143.32;100.00
14134;BME280;7147;59.364;18.018;2022-11-23T03:27:26;-14565.66;;;-143.32;100.00
14134;BME280;7147;59.364;18.018;2022-11-23T03:29:53;-14565.66;;;-143.32;100.00
14134;BME280;7147;59.364;18.018;2022-11-23T03:32:20;-14565.66;;;-143.32;100.00
14134;BME280;7147;59.364;18.018;2022-11-23T03:34:48;-14565.66;;;-143.32;100.00
14134;BME280;7147;59.364;18.018;2022-11-23T03:37:15;-14565.66;;;-143.32;100.00
14134;BME280;7147;59.364;18.018;2022-11-23T03:39:41;-14565.66;;;-143.32;100.00
14134;BME280;7147;59.364;18.018;2022-11-23T03:42:08;-14565.66;;;-143.32;100.00
14134;BME280;7147;59.364;18.018;2022-11-23T03:44:35;-14565.66;;;-143.32;100.00
14134;BME280;7147;59.364;18.018;2022-11-23T03:47:02;-14565.66;;;-143.32;100.00
14134;BME280;7147;59.364;18.018;2022-11-23T03:49:28;-14565.66;;;-143.32;100.00
14134;BME280;7147;59.364;18.018;2022-11-23T03:51:56;-14565.66;;;-143.32;100.00
14134;BME280;7147;59.364;18.018;2022-11-23T03:54:23;-14565.66;;;-143.32;100.00
14134;BME280;7147;59.364;18.018;2022-11-23T03:56:50;-14565.66;;;-143.32;100.00
14134;BME280;7147;59.364;18.018;2022-11-23T03:59:17;-14565.66;;;-143.32;100.00
14134;BME280;7147;59.364;18.018;2022-11-23T04:01:43;-14565.66;;;-143.32;100.00
14134;BME280;7147;59.364;18.018;2022-11-23T04:04:10;-14565.66;;;-143.32;100.00
14134;BME280;7147;59.364;18.018;2022-11-23T04:06:37;-14565.66;;;-143.32;100.00
14134;BME280;7147;59.364;18.018;2022-11-23T04:09:05;-14565.66;;;-143.32;100.00
14134;BME280;7147;59.364;18.018;2022-11-23T04:11:32;-14565.66;;;-143.32;100.00
14134;BME280;7147;59.364;18.018;2022-11-23T04:13:59;-14565.66;;;-143.32;100.00
14134;BME280;7147;59.364;18.018;2022-11-23T04:16:25;-14565.66;;;-143.32;100.00
14134;BME280;7147;59.364;18.018;2022-11-23T04:18:52;-14565.66;;;-143.32;100.00
14134;BME280;7147;59.364;18.018;2022-11-23T04:21:19;-14565.66;;;-143.32;100.00
14134;BME280;7147;59.364;18.018;2022-11-23T04:23:45;-14565.66;;;-143.32;100.00
14134;BME280;7147;59.364;18.018;2022-11-23T04:26:13;-14565.66;;;-143.32;100.00
14134;BME280;7147;59.364;18.018;2022-11-23T04:28:40;-14565.66;;;-143.32;100.00
14134;BME280;7147;59.364;18.018;2022-11-23T04:31:07;-14565.66;;;-143.32;100.00
14134;BME280;7147;59.364;18.018;2022-11-23T04:33:34;-14565.66;;;-143.32;100.00
14134;BME280;7147;59.364;18.018;2022-11-23T04:36:01;-14565.66;;;-143.32;100.00
14134;BME280;7147;59.364;18.018;2022-11-23T04:38:28;-14565.66;;;-143.32;100.00
14134;BME280;7147;59.364;18.018;2022-11-23T04:40:56;-14565.66;;;-143.32;100.00
14134;BME280;7147;59.364;18.018;2022-11-23T04:43:24;-14565.66;;;-143.32;100.00
14134;BME280;7147;59.364;18.018;2022-11-23T04:45:51;-14565.66;;;-143.32;100.00
14134;BME280;7147;59.364;18.018;2022-11-23T04:48:18;-14565.66;;;-143.32;100.00
14134;BME280;7147;59.364;18.018;2022-11-23T04:50:45;-14565.66;;;-143.32;100.00
14134;BME280;7147;59.364;18.018;2022-11-23T04:53:11;-14565.66;;;-143.32;100.00
14134;BME280;7147;59.364;18.018;2022-11-23T04:55:39;-14565.66;;;-143.32;100.00
14134;BME280;7147;59.364;18.018;2022-11-23T04:58:06;-14565.66;;;-143.32;100.00
14134;BME280;7147;59.364;18.018;2022-11-23T05:00:34;-14565.66;;;-143.32;100.00
14134;BME280;7147;59.364;18.018;2022-11-23T05:03:01;-14565.66;;;-143.32;100.00
14134;BME280;7147;59.364;18.018;2022-11-23T05:05:27;-14565.66;;;-143.32;100.00
14134;BME280;7147;59.364;18.018;2022-11-23T05:07:55;-14565.66;;;-143.32;100.00
14134;BME280;7147;59.364;18.018;2022-11-23T05:10:23;-14565.66;;;-143.32;100.00
14134;BME280;7147;59.364;18.018;2022-11-23T05:12:50;-14565.66;;;-143.32;100.00
14134;BME280;7147;59.364;18.018;2022-11-23T05:15:17;-14565.66;;;-143.32;100.00
14134;BME280;7147;59.364;18.018;2022-11-23T05:17:45;-14565.66;;;-143.32;100.00
14134;BME280;7147;59.364;18.018;2022-11-23T05:20:12;-14565.66;;;-143.32;100.00
14134;BME280;7147;59.364;18.018;2022-11-23T05:22:38;-14565.66;;;-143.32;100.00
14134;BME280;7147;59.364;18.018;2022-11-23T05:25:06;-14565.66;;;-143.32;100.00
14134;BME280;7147;59.364;18.018;2022-11-23T05:27:33;-14565.66;;;-143.32;100.00
14134;BME280;7147;59.364;18.018;2022-11-23T05:30:00;-14565.66;;;-143.32;100.00
14134;BME280;7147;59.364;18.018;2022-11-23T05:32:27;-14565.66;;;-143.32;100.00
14134;BME280;7147;59.364;18.018;2022-11-23T05:34:55;-14565.66;;;-143.32;100.00
14134;BME280;7147;59.364;18.018;2022-11-23T05:37:21;-14565.66;;;-143.32;100.00
14134;BME280;7147;59.364;18.018;2022-11-23T05:39:48;-14565.66;;;-143.32;100.00
14134;BME280;7147;59.364;18.018;2022-11-23T05:42:15;-14565.66;;;-143.32;100.00
14134;BME280;7147;59.364;18.018;2022-11-23T05:44:42;-14565.66;;;-143.32;100.00
14134;BME280;7147;59.364;18.018;2022-11-23T05:47:09;-14565.66;;;-143.32;100.00
14134;BME280;7147;59.364;18.018;2022-11-23T05:49:36;-14565.66;;;-143.32;100.00
14134;BME280;7147;59.364;18.018;2022-11-23T05:52:04;-14565.66;;;-143.32;100.00
14134;BME280;7147;59.364;18.018;2022-11-23T05:54:31;-14565.66;;;-143.32;100.00
14134;BME280;7147;59.364;18.018;2022-11-23T05:56:58;-14565.66;;;-143.32;100.00
14134;BME280;7147;59.364;18.018;2022-11-23T05:59:24;-14565.66;;;-143.32;100.00
14134;BME280;7147;59.364;18.018;2022-11-23T06:01:51;-14565.66;;;-143.32;100.00
14134;BME280;7147;59.364;18.018;2022-11-23T06:04:18;-14565.66;;;-143.32;100.00
14134;BME280;7147;59.364;18.018;2022-11-23T06:06:45;-14565.66;;;-143.32;100.00
14134;BME280;7147;59.364;18.018;2022-11-23T06:09:13;-14565.66;;;-143.32;100.00
14134;BME280;7147;59.364;18.018;2022-11-23T06:11:40;-14565.66;;;-143.32;100.00
14134;BME280;7147;59.364;18.018;2022-11-23T06:14:08;-14565.66;;;-143.32;100.00
14134;BME280;7147;59.364;18.018;2022-11-23T06:16:35;-14565.66;;;-143.32;100.00
14134;BME280;7147;59.364;18.018;2022-11-23T06:19:02;-14565.66;;;-143.32;100.00
14134;BME280;7147;59.364;18.018;2022-11-23T06:21:28;-14565.66;;;-143.32;100.00
14134;BME280;7147;59.364;18.018;2022-11-23T06:23:55;-14565.66;;;-143.32;100.00
14134;BME280;7147;59.364;18.018;2022-11-23T06:26:24;-14402.78;;;-143.32;100.00
14134;BME280;7147;59.364;18.018;2022-11-23T06:28:51;-13941.16;;;-143.32;100.00
14134;BME280;7147;59.364;18.018;2022-11-23T06:31:18;-13497.88;;;-143.32;100.00
14134;BME280;7147;59.364;18.018;2022-11-23T06:33:44;-13166.91;;;-143.32;100.00
14134;BME280;7147;59.364;18.018;2022-11-23T06:36:11;-13091.31;;;-143.32;100.00
14134;BME280;7147;59.364;18.018;2022-11-23T06:38:39;-12643.81;;;-143.32;100.00
14134;BME280;7147;59.364;18.018;2022-11-23T06:41:07;-12369.97;;;-143.32;100.00
14134;BME280;7147;59.364;18.018;2022-11-23T06:43:35;-12353.63;;;-143.32;100.00
14134;BME280;7147;59.364;18.018;2022-11-23T06:46:03;-12594.78;;;-143.32;100.00
14134;BME280;7147;59.364;18.018;2022-11-23T06:48:31;-12694.91;;;-143.32;100.00
14134;BME280;7147;59.364;18.018;2022-11-23T06:50:58;-12950.31;;;-143.32;100.00
14134;BME280;7147;59.364;18.018;2022-11-23T06:53:25;-13195.50;;;-143.32;100.00
14134;BME280;7147;59.364;18.018;2022-11-23T06:55:57;-13479.50;;;-143.32;100.00
14134;BME280;7147;59.364;18.018;2022-11-23T06:58:23;-13718.50;;;-143.32;100.00
14134;BME280;7147;59.364;18.018;2022-11-23T07:00:52;-13873.75;;;-143.32;100.00
14134;BME280;7147;59.364;18.018;2022-11-23T07:03:21;-13943.22;;;-143.32;100.00
14134;BME280;7147;59.364;18.018;2022-11-23T07:05:48;-14120.91;;;-143.32;100.00
14134;BME280;7147;59.364;18.018;2022-11-23T07:08:15;-14208.75;;;-143.32;100.00
14134;BME280;7147;59.364;18.018;2022-11-23T07:10:42;-14202.63;;;-143.32;100.00
14134;BME280;7147;59.364;18.018;2022-11-23T07:13:09;-14216.91;;;-143.32;100.00
14134;BME280;7147;59.364;18.018;2022-11-23T07:15:37;-14204.66;;;-143.32;100.00
14134;BME280;7147;59.364;18.018;2022-11-23T07:18:05;-14263.91;;;-143.32;100.00
14134;BME280;7147;59.364;18.018;2022-11-23T07:20:34;-14257.78;;;-143.32;100.00
14134;BME280;7147;59.364;18.018;2022-11-23T07:23:01;-14018.78;;;-143.32;100.00
14134;BME280;7147;59.364;18.018;2022-11-23T07:25:29;-14020.84;;;-143.32;100.00
14134;BME280;7147;59.364;18.018;2022-11-23T07:27:57;-13965.69;;;-143.32;100.00
14134;BME280;7147;59.364;18.018;2022-11-23T07:30:24;-13959.56;;;-143.32;100.00
14134;BME280;7147;59.364;18.018;2022-11-23T07:32:51;-13914.63;;;-143.32;100.00
14134;BME280;7147;59.364;18.018;2022-11-23T07:35:20;-13595.94;;;-143.32;100.00
14134;BME280;7147;59.364;18.018;2022-11-23T07:37:46;-13612.28;;;-143.32;100.00
14134;BME280;7147;59.364;18.018;2022-11-23T07:40:13;-13591.84;;;-143.32;100.00
14134;BME280;7147;59.364;18.018;2022-11-23T07:42:40;-13706.25;;;-143.32;100.00
14134;BME280;7147;59.364;18.018;2022-11-23T07:45:08;-13855.38;;;-143.32;100.00
14134;BME280;7147;59.364;18.018;2022-11-23T07:47:35;-13755.28;;;-143.32;100.00
14134;BME280;7147;59.364;18.018;2022-11-23T07:50:02;-13647.00;;;-143.32;100.00
14134;BME280;7147;59.364;18.018;2022-11-23T07:52:31;-13657.22;;;-143.32;100.00
14134;BME280;7147;59.364;18.018;2022-11-23T07:54:59;-13702.16;;;-143.32;100.00
14134;BME280;7147;59.364;18.018;2022-11-23T07:57:26;-13428.41;;;-143.32;100.00
14134;BME280;7147;59.364;18.018;2022-11-23T07:59:53;-13457.03;;;-143.32;100.00
14134;BME280;7147;59.364;18.018;2022-11-23T08:02:20;-13442.72;;;-143.32;100.00
14134;BME280;7147;59.364;18.018;2022-11-23T08:04:47;-13661.31;;;-143.32;100.00
14134;BME280;7147;59.364;18.018;2022-11-23T08:07:14;-13581.63;;;-143.32;100.00
14134;BME280;7147;59.364;18.018;2022-11-23T08:09:42;-13706.25;;;-143.32;100.00
14134;BME280;7147;59.364;18.018;2022-11-23T08:12:09;-13663.34;;;-143.32;100.00
14134;BME280;7147;59.364;18.018;2022-11-23T08:14:36;-13939.13;;;-143.32;100.00
14134;BME280;7147;59.364;18.018;2022-11-23T08:17:03;-13926.88;;;-143.32;100.00
14134;BME280;7147;59.364;18.018;2022-11-23T08:19:29;-14108.66;;;-143.32;100.00
14134;BME280;7147;59.364;18.018;2022-11-23T08:21:56;-14184.25;;;-143.32;100.00
14134;BME280;7147;59.364;18.018;2022-11-23T08:24:23;-14208.75;;;-143.32;100.00
14134;BME280;7147;59.364;18.018;2022-11-23T08:26:51;-14241.44;;;-143.32;100.00
14134;BME280;7147;59.364;18.018;2022-11-23T08:29:18;-14290.44;;;-143.32;100.00
14134;BME280;7147;59.364;18.018;2022-11-23T08:31:45;-14472.22;;;-143.32;100.00
14134;BME280;7147;59.364;18.018;2022-11-23T08:34:12;-14466.09;;;-143.32;100.00
14134;BME280;7147;59.364;18.018;2022-11-23T08:36:39;-14294.53;;;-143.32;100.00
14134;BME280;7147;59.364;18.018;2022-11-23T08:39:06;-14249.59;;;-143.32;100.00
14134;BME280;7147;59.364;18.018;2022-11-23T08:41:35;-14241.44;;;-143.32;100.00
14134;BME280;7147;59.364;18.018;2022-11-23T08:44:03;-13961.59;;;-143.32;100.00
14134;BME280;7147;59.364;18.018;2022-11-23T08:46:30;-13924.81;;;-143.32;100.00
14134;BME280;7147;59.364;18.018;2022-11-23T08:48:57;-13930.97;;;-143.32;100.00
14134;BME280;7147;59.364;18.018;2022-11-23T08:51:24;-13714.44;;;-143.32;100.00
14134;BME280;7147;59.364;18.018;2022-11-23T08:53:51;-13681.75;;;-143.32;100.00
14134;BME280;7147;59.364;18.018;2022-11-23T08:56:17;-13673.56;;;-143.32;100.00
14134;BME280;7147;59.364;18.018;2022-11-23T08:58:44;-13616.38;;;-143.32;100.00
14134;BME280;7147;59.364;18.018;2022-11-23T09:01:14;-13579.59;;;-143.32;100.00
14134;BME280;7147;59.364;18.018;2022-11-23T09:03:42;-13358.97;;;-143.32;100.00
14134;BME280;7147;59.364;18.018;2022-11-23T09:06:09;-13195.50;;;-143.32;100.00
14134;BME280;7147;59.364;18.018;2022-11-23T09:08:36;-13373.25;;;-143.32;100.00
14134;BME280;7147;59.364;18.018;2022-11-23T09:11:05;-13173.03;;;-143.32;100.00
14134;BME280;7147;59.364;18.018;2022-11-23T09:13:33;-12889.03;;;-143.32;100.00
14134;BME280;7147;59.364;18.018;2022-11-23T09:16:01;-13121.97;;;-143.32;100.00
14134;BME280;7147;59.364;18.018;2022-11-23T09:18:30;-12905.38;;;-143.32;100.00
14134;BME280;7147;59.364;18.018;2022-11-23T09:21:01;-12678.56;;;-143.32;100.00
14134;BME280;7147;59.364;18.018;2022-11-23T09:23:28;-12819.56;;;-143.32;100.00
14134;BME280;7147;59.364;18.018;2022-11-23T09:25:57;-12825.69;;;-143.32;100.00
14134;BME280;7147;59.364;18.018;2022-11-23T09:28:23;-12680.59;;;-143.32;100.00
14134;BME280;7147;59.364;18.018;2022-11-23T09:30:52;-12666.28;;;-143.32;100.00
14134;BME280;7147;59.364;18.018;2022-11-23T09:33:19;-12390.41;;;-143.32;100.00
14134;BME280;7147;59.364;18.018;2022-11-23T09:35:55;-12314.78;;;-143.32;100.00
14134;BME280;7147;59.364;18.018;2022-11-23T09:38:22;-12169.69;;;-143.32;100.00
14134;BME280;7147;59.364;18.018;2022-11-23T09:40:55;-12421.06;;;-143.32;100.00
14134;BME280;7147;59.364;18.018;2022-11-23T09:43:38;-12576.38;;;-143.32;100.00
14134;BME280;7147;59.364;18.018;2022-11-23T09:46:11;-12647.91;;;-143.32;100.00
14134;BME280;7147;59.364;18.018;2022-11-23T09:49:09;-12666.28;;;-143.32;100.00
14134;BME280;7147;59.364;18.018;2022-11-23T09:51:40;-12672.44;;;-143.32;100.00
14134;BME280;7147;59.364;18.018;2022-11-23T09:54:13;-12672.44;;;-143.32;100.00
14134;BME280;7147;59.364;18.018;2022-11-23T09:56:45;-12811.38;;;-143.32;100.00
14134;BME280;7147;59.364;18.018;2022-11-23T09:59:22;-12811.38;;;-143.32;100.00
14134;BME280;7147;59.364;18.018;2022-11-23T10:01:51;-12419.03;;;-143.32;100.00
14134;BME280;7147;59.364;18.018;2022-11-23T10:04:19;-12374.06;;;-143.32;100.00
14134;BME280;7147;59.364;18.018;2022-11-23T10:06:52;-12427.19;;;-143.32;100.00
14134;BME280;7147;59.364;18.018;2022-11-23T10:09:29;-12443.53;;;-143.32;100.00
14134;BME280;7147;59.364;18.018;2022-11-23T10:12:12;-12410.84;;;-143.32;100.00
14134;BME280;7147;59.364;18.018;2022-11-23T10:14:52;-12625.44;;;-143.32;100.00
14134;BME280;7147;59.364;18.018;2022-11-23T10:17:28;-12566.16;;;-143.32;100.00
14134;BME280;7147;59.364;18.018;2022-11-23T10:20:14;-12396.53;;;-143.32;100.00
14134;BME280;7147;59.364;18.018;2022-11-23T10:22:51;-12398.59;;;-143.32;100.00
14134;BME280;7147;59.364;18.018;2022-11-23T10:25:23;-12619.28;;;-143.32;100.00
14134;BME280;7147;59.364;18.018;2022-11-23T10:27:55;-12380.19;;;-143.32;100.00
14134;BME280;7147;59.364;18.018;2022-11-23T10:30:22;-11840.63;;;-143.32;100.00
14134;BME280;7147;59.364;18.018;2022-11-23T10:32:51;-11873.34;;;-143.32;100.00
14134;BME280;7147;59.364;18.018;2022-11-23T10:35:26;-11542.19;;;-143.32;100.00
14134;BME280;7147;59.364;18.018;2022-11-23T10:38:08;-11403.19;;;-143.32;100.00
14134;BME280;7147;59.364;18.018;2022-11-23T10:40:38;-11368.44;;;-143.32;100.00
14134;BME280;7147;59.364;18.018;2022-11-23T10:43:13;-11082.22;;;-143.32;100.00
14134;BME280;7147;59.364;18.018;2022-11-23T10:45:41;-11069.94;;;-143.32;100.00
14134;BME280;7147;59.364;18.018;2022-11-23T10:48:08;-11037.25;;;-143.32;100.00
14134;BME280;7147;59.364;18.018;2022-11-23T10:50:35;-11354.13;;;-143.32;100.00
14134;BME280;7147;59.364;18.018;2022-11-23T10:53:18;-11051.56;;;-143.32;100.00
14134;BME280;7147;59.364;18.018;2022-11-23T10:55:49;-11343.91;;;-143.32;100.00
14134;BME280;7147;59.364;18.018;2022-11-23T10:58:24;-11634.19;;;-143.32;100.00
14134;BME280;7147;59.364;18.018;2022-11-23T11:00:58;-11499.25;;;-143.32;100.00
14134;BME280;7147;59.364;18.018;2022-11-23T11:03:30;-11153.78;;;-143.32;100.00
14134;BME280;7147;59.364;18.018;2022-11-23T11:05:57;-10971.81;;;-143.32;100.00
14134;BME280;7147;59.364;18.018;2022-11-23T11:08:28;-10818.47;;;-143.32;100.00
14134;BME280;7147;59.364;18.018;2022-11-23T11:10:58;-10634.44;;;-143.32;100.00
14134;BME280;7147;59.364;18.018;2022-11-23T11:13:28;-10888.00;;;-143.32;100.00
14134;BME280;7147;59.364;18.018;2022-11-23T11:15:57;-10581.28;;;-143.32;100.00
14134;BME280;7147;59.364;18.018;2022-11-23T11:18:26;-10554.69;;;-143.32;100.00
14134;BME280;7147;59.364;18.018;2022-11-23T11:21:00;-10703.97;;;-143.32;100.00
14134;BME280;7147;59.364;18.018;2022-11-23T11:23:29;-10366.56;;;-143.32;100.00
14134;BME280;7147;59.364;18.018;2022-11-23T11:26:09;-10243.88;;;-143.32;100.00
14134;BME280;7147;59.364;18.018;2022-11-23T11:28:43;-10346.13;;;-143.32;100.00
14134;BME280;7147;59.364;18.018;2022-11-23T11:31:22;-10356.34;;;-143.32;100.00
14134;BME280;7147;59.364;18.018;2022-11-23T11:33:55;-10340.00;;;-143.32;100.00
14134;BME280;7147;59.364;18.018;2022-11-23T11:36:29;-10454.50;;;-143.32;100.00
14134;BME280;7147;59.364;18.018;2022-11-23T11:39:02;-10342.03;;;-143.32;100.00
14134;BME280;7147;59.364;18.018;2022-11-23T11:41:33;-10295.00;;;-143.32;100.00
14134;BME280;7147;59.364;18.018;2022-11-23T11:44:05;-10280.69;;;-143.32;100.00
14134;BME280;7147;59.364;18.018;2022-11-23T11:46:37;-10297.06;;;-143.32;100.00
14134;BME280;7147;59.364;18.018;2022-11-23T11:49:09;-10301.13;;;-143.32;100.00
14134;BME280;7147;59.364;18.018;2022-11-23T11:51:40;-10104.81;;;-143.32;100.00
14134;BME280;7147;59.364;18.018;2022-11-23T11:54:17;-10025.06;;;-143.32;100.00
14134;BME280;7147;59.364;18.018;2022-11-23T11:56:49;-10061.88;;;-143.32;100.00
14134;BME280;7147;59.364;18.018;2022-11-23T11:59:21;-10004.59;;;-143.32;100.00
14134;BME280;7147;59.364;18.018;2022-11-23T12:01:55;-10027.09;;;-143.32;100.00
14134;BME280;7147;59.364;18.018;2022-11-23T12:04:28;-9769.41;;;-143.32;100.00
14134;BME280;7147;59.364;18.018;2022-11-23T12:07:01;-9755.09;;;-143.32;100.00
14134;BME280;7147;59.364;18.018;2022-11-23T12:09:36;-9969.84;;;-143.32;100.00
14134;BME280;7147;59.364;18.018;2022-11-23T12:12:11;-9949.38;;;-143.32;100.00
14134;BME280;7147;59.364;18.018;2022-11-23T12:14:40;-9489.19;;;-143.32;100.00
14134;BME280;7147;59.364;18.018;2022-11-23T12:17:15;-9454.41;;;-143.32;100.00
14134;BME280;7147;59.364;18.018;2022-11-23T12:19:54;-9313.28;;;-143.32;100.00
14134;BME280;7147;59.364;18.018;2022-11-23T12:22:37;-9431.91;;;-143.32;100.00
14134;BME280;7147;59.364;18.018;2022-11-23T12:25:15;-9429.88;;;-143.32;100.00
14134;BME280;7147;59.364;18.018;2022-11-23T12:27:57;-9241.69;;;-143.32;100.00
14134;BME280;7147;59.364;18.018;2022-11-23T12:30:29;-9286.69;;;-143.32;100.00